sensor_id;sensor_type;location;lat;lon;timestamp;pressure;altitude;pressure_sealevel;temperature;humidity
21566;BME280;10943;48.738;9.320;2022-12-24T00:01:25;98339.34;;;13.51;70.47
21566;BME280;10943;48.738;9.320;2022-12-24T00:03:53;98344.25;;;13.33;71.47
21566;BME280;10943;48.738;9.320;2022-12-24T00:06:22;98338.09;;;13.21;72.35
21566;BME280;10943;48.738;9.320;2022-12-24T00:08:50;98352.19;;;13.52;71.28
21566;BME280;10943;48.738;9.320;2022-12-24T00:11:19;98344.38;;;13.54;70.95
21566;BME280;10943;48.738;9.320;2022-12-24T00:13:47;98343.81;;;13.52;70.86
21566;BME280;10943;48.738;9.320;2022-12-24T00:16:16;98338.19;;;13.36;71.33
21566;BME280;10943;48.738;9.320;2022-12-24T00:18:43;98343.34;;;13.12;71.81
21566;BME280;10943;48.738;9.320;2022-12-24T00:21:14;98332.25;;;13.23;72.26
21566;BME280;10943;48.738;9.320;2022-12-24T00:23:42;98347.94;;;13.39;72.20
21566;BME280;10943;48.738;9.320;2022-12-24T00:26:11;98350.47;;;13.46;71.69
21566;BME280;10943;48.738;9.320;2022-12-24T00:28:40;98358.22;;;13.39;71.44
21566;BME280;10943;48.738;9.320;2022-12-24T00:31:15;98354.56;;;13.33;71.67
21566;BME280;10943;48.738;9.320;2022-12-24T00:33:47;98360.81;;;13.61;70.45
21566;BME280;10943;48.738;9.320;2022-12-24T00:36:16;98362.00;;;13.17;71.26
21566;BME280;10943;48.738;9.320;2022-12-24T00:38:45;98359.63;;;13.41;70.82
21566;BME280;10943;48.738;9.320;2022-12-24T00:41:13;98357.69;;;13.42;70.16
21566;BME280;10943;48.738;9.320;2022-12-24T00:43:57;98363.78;;;12.91;71.93
21566;BME280;10943;48.738;9.320;2022-12-24T00:46:30;98373.41;;;12.73;72.39
21566;BME280;10943;48.738;9.320;2022-12-24T00:48:58;98381.19;;;12.70;72.05
21566;BME280;10943;48.738;9.320;2022-12-24T00:51:26;98370.22;;;12.91;72.92
21566;BME280;10943;48.738;9.320;2022-12-24T00:53:54;98373.72;;;13.24;71.72
21566;BME280;10943;48.738;9.320;2022-12-24T00:56:22;98381.63;;;13.38;71.26
21566;BME280;10943;48.738;9.320;2022-12-24T00:58:50;98373.56;;;13.41;70.84
21566;BME280;10943;48.738;9.320;2022-12-24T01:01:19;98378.94;;;13.68;69.03
21566;BME280;10943;48.738;9.320;2022-12-24T01:03:47;98376.75;;;13.70;68.97
21566;BME280;10943;48.738;9.320;2022-12-24T01:06:19;98392.81;;;13.53;69.36
21566;BME280;10943;48.738;9.320;2022-12-24T01:08:51;98393.41;;;13.55;69.50
21566;BME280;10943;48.738;9.320;2022-12-24T01:11:18;98411.56;;;13.20;70.21
21566;BME280;10943;48.738;9.320;2022-12-24T01:13:45;98410.44;;;13.16;71.08
21566;BME280;10943;48.738;9.320;2022-12-24T01:16:18;98415.59;;;13.40;71.19
21566;BME280;10943;48.738;9.320;2022-12-24T01:18:46;98412.34;;;13.63;69.66
21566;BME280;10943;48.738;9.320;2022-12-24T01:21:15;98426.00;;;13.55;69.93
21566;BME280;10943;48.738;9.320;2022-12-24T01:23:44;98437.44;;;13.68;70.05
21566;BME280;10943;48.738;9.320;2022-12-24T01:26:11;98434.72;;;13.84;69.67
21566;BME280;10943;48.738;9.320;2022-12-24T01:28:39;98434.78;;;13.99;69.11
21566;BME280;10943;48.738;9.320;2022-12-24T01:31:15;98431.47;;;14.02;68.63
21566;BME280;10943;48.738;9.320;2022-12-24T01:33:45;98436.94;;;13.72;68.55
21566;BME280;10943;48.738;9.320;2022-12-24T01:36:16;98440.09;;;14.06;68.78
21566;BME280;10943;48.738;9.320;2022-12-24T01:38:44;98434.78;;;14.05;68.95
21566;BME280;10943;48.738;9.320;2022-12-24T01:41:16;98436.44;;;13.95;68.93
21566;BME280;10943;48.738;9.320;2022-12-24T01:47:17;98430.84;;;13.85;69.64
21566;BME280;10943;48.738;9.320;2022-12-24T01:49:55;98429.44;;;13.88;69.25
21566;BME280;10943;48.738;9.320;2022-12-24T01:52:33;98452.56;;;13.88;69.36
21566;BME280;10943;48.738;9.320;2022-12-24T01:55:14;98471.81;;;13.90;68.30
21566;BME280;10943;48.738;9.320;2022-12-24T01:57:56;98488.78;;;13.78;69.49
21566;BME280;10943;48.738;9.320;2022-12-24T02:00:25;98495.22;;;13.89;68.44
21566;BME280;10943;48.738;9.320;2022-12-24T02:02:53;98499.72;;;13.42;69.49
21566;BME280;10943;48.738;9.320;2022-12-24T02:05:33;98508.09;;;12.77;72.11
21566;BME280;10943;48.738;9.320;2022-12-24T02:08:04;98526.91;;;13.34;71.18
21566;BME280;10943;48.738;9.320;2022-12-24T02:10:32;98522.38;;;13.61;70.43
21566;BME280;10943;48.738;9.320;2022-12-24T02:13:01;98519.44;;;13.78;70.38
21566;BME280;10943;48.738;9.320;2022-12-24T02:22:38;98535.38;;;13.45;71.96
21566;BME280;10943;48.738;9.320;2022-12-24T02:35:20;98541.81;;;13.18;72.47
21566;BME280;10943;48.738;9.320;2022-12-24T02:38:04;98535.50;;;13.28;72.31
21566;BME280;10943;48.738;9.320;2022-12-24T02:40:41;98530.25;;;13.31;71.86
21566;BME280;10943;48.738;9.320;2022-12-24T02:43:22;98537.50;;;13.32;72.06
21566;BME280;10943;48.738;9.320;2022-12-24T02:46:00;98534.91;;;13.26;71.70
21566;BME280;10943;48.738;9.320;2022-12-24T02:48:37;98531.97;;;13.05;72.36
21566;BME280;10943;48.738;9.320;2022-12-24T02:51:13;98548.78;;;13.20;72.80
21566;BME280;10943;48.738;9.320;2022-12-24T02:53:41;98564.28;;;13.39;72.11
21566;BME280;10943;48.738;9.320;2022-12-24T03:08:53;98554.44;;;12.98;72.31
21566;BME280;10943;48.738;9.320;2022-12-24T03:11:25;98548.75;;;13.15;71.89
21566;BME280;10943;48.738;9.320;2022-12-24T03:13:56;98554.44;;;12.98;72.09
21566;BME280;10943;48.738;9.320;2022-12-24T03:16:26;98562.34;;;13.07;72.13
21566;BME280;10943;48.738;9.320;2022-12-24T03:18:56;98571.88;;;13.16;72.01
21566;BME280;10943;48.738;9.320;2022-12-24T03:21:31;98568.91;;;13.28;71.99
21566;BME280;10943;48.738;9.320;2022-12-24T03:24:01;98574.31;;;13.40;70.98
21566;BME280;10943;48.738;9.320;2022-12-24T03:26:31;98577.22;;;13.23;71.28
21566;BME280;10943;48.738;9.320;2022-12-24T03:29:03;98598.97;;;12.98;72.19
21566;BME280;10943;48.738;9.320;2022-12-24T03:31:49;98609.63;;;13.07;73.08
21566;BME280;10943;48.738;9.320;2022-12-24T03:34:19;98605.28;;;13.16;72.08
21566;BME280;10943;48.738;9.320;2022-12-24T03:36:47;98592.91;;;13.01;72.28
21566;BME280;10943;48.738;9.320;2022-12-24T03:39:15;98583.84;;;12.89;72.67
21566;BME280;10943;48.738;9.320;2022-12-24T03:41:43;98594.59;;;13.08;72.33
21566;BME280;10943;48.738;9.320;2022-12-24T03:44:10;98585.75;;;13.11;71.61
21566;BME280;10943;48.738;9.320;2022-12-24T03:46:38;98590.06;;;12.69;73.08
21566;BME280;10943;48.738;9.320;2022-12-24T03:49:05;98606.97;;;12.90;72.43
21566;BME280;10943;48.738;9.320;2022-12-24T03:51:33;98619.88;;;13.01;72.32
21566;BME280;10943;48.738;9.320;2022-12-24T03:54:00;98608.47;;;13.02;72.01
21566;BME280;10943;48.738;9.320;2022-12-24T03:56:28;98607.50;;;13.19;72.26
21566;BME280;10943;48.738;9.320;2022-12-24T03:58:55;98607.56;;;13.24;71.08
21566;BME280;10943;48.738;9.320;2022-12-24T04:01:23;98598.97;;;12.98;71.46
21566;BME280;10943;48.738;9.320;2022-12-24T04:03:50;98597.56;;;13.28;70.51
21566;BME280;10943;48.738;9.320;2022-12-24T04:06:18;98604.13;;;13.39;70.25
21566;BME280;10943;48.738;9.320;2022-12-24T04:08:45;98605.22;;;13.76;68.66
21566;BME280;10943;48.738;9.320;2022-12-24T04:11:15;98608.81;;;13.39;70.51
21566;BME280;10943;48.738;9.320;2022-12-24T04:13:43;98614.28;;;13.28;71.14
21566;BME280;10943;48.738;9.320;2022-12-24T04:16:14;98619.31;;;13.31;71.33
21566;BME280;10943;48.738;9.320;2022-12-24T04:18:43;98620.56;;;13.13;71.64
21566;BME280;10943;48.738;9.320;2022-12-24T04:21:11;98617.50;;;13.15;71.87
21566;BME280;10943;48.738;9.320;2022-12-24T04:23:40;98604.56;;;13.31;71.45
21566;BME280;10943;48.738;9.320;2022-12-24T04:26:11;98607.59;;;12.97;70.49
21566;BME280;10943;48.738;9.320;2022-12-24T04:28:41;98620.97;;;13.00;72.34
21566;BME280;10943;48.738;9.320;2022-12-24T04:31:16;98621.09;;;13.15;72.02
21566;BME280;10943;48.738;9.320;2022-12-24T04:33:45;98614.06;;;13.35;70.83
21566;BME280;10943;48.738;9.320;2022-12-24T04:36:16;98600.78;;;13.42;70.20
21566;BME280;10943;48.738;9.320;2022-12-24T04:38:47;98598.69;;;13.00;70.24
21566;BME280;10943;48.738;9.320;2022-12-24T04:41:19;98606.59;;;12.81;72.65
21566;BME280;10943;48.738;9.320;2022-12-24T04:43:53;98606.06;;;12.84;71.92
21566;BME280;10943;48.738;9.320;2022-12-24T04:46:25;98603.38;;;12.94;71.37
21566;BME280;10943;48.738;9.320;2022-12-24T04:48:57;98617.84;;;12.91;71.89
21566;BME280;10943;48.738;9.320;2022-12-24T04:51:27;98622.88;;;12.94;72.03
21566;BME280;10943;48.738;9.320;2022-12-24T04:53:56;98614.72;;;12.87;71.44
21566;BME280;10943;48.738;9.320;2022-12-24T04:56:29;98621.44;;;12.92;71.62
21566;BME280;10943;48.738;9.320;2022-12-24T04:58:59;98625.13;;;12.97;71.29
21566;BME280;10943;48.738;9.320;2022-12-24T05:01:31;98624.28;;;12.69;71.26
21566;BME280;10943;48.738;9.320;2022-12-24T05:03:59;98637.50;;;12.57;72.24
21566;BME280;10943;48.738;9.320;2022-12-24T05:06:30;98638.72;;;12.66;72.62
21566;BME280;10943;48.738;9.320;2022-12-24T05:08:59;98642.13;;;12.74;72.22
21566;BME280;10943;48.738;9.320;2022-12-24T05:11:27;98638.69;;;12.88;72.21
21566;BME280;10943;48.738;9.320;2022-12-24T05:13:54;98636.56;;;12.74;71.19
21566;BME280;10943;48.738;9.320;2022-12-24T05:16:24;98645.94;;;12.67;72.11
21566;BME280;10943;48.738;9.320;2022-12-24T05:18:52;98643.03;;;12.35;72.53
21566;BME280;10943;48.738;9.320;2022-12-24T05:21:22;98656.03;;;12.51;72.64
21566;BME280;10943;48.738;9.320;2022-12-24T05:23:50;98660.38;;;12.64;71.90
21566;BME280;10943;48.738;9.320;2022-12-24T05:26:45;98662.31;;;12.64;72.47
21566;BME280;10943;48.738;9.320;2022-12-24T05:29:15;98655.03;;;12.85;71.72
21566;BME280;10943;48.738;9.320;2022-12-24T05:31:44;98655.03;;;12.85;71.47
21566;BME280;10943;48.738;9.320;2022-12-24T05:34:14;98658.03;;;12.78;71.81
21566;BME280;10943;48.738;9.320;2022-12-24T05:36:43;98661.25;;;12.92;71.05
21566;BME280;10943;48.738;9.320;2022-12-24T05:39:16;98657.34;;;12.93;70.55
21566;BME280;10943;48.738;9.320;2022-12-24T05:41:45;98644.06;;;12.73;71.22
21566;BME280;10943;48.738;9.320;2022-12-24T05:44:13;98648.91;;;12.16;72.76
21566;BME280;10943;48.738;9.320;2022-12-24T05:46:43;98655.97;;;12.24;72.49
21566;BME280;10943;48.738;9.320;2022-12-24T05:49:11;98656.50;;;12.21;72.83
21566;BME280;10943;48.738;9.320;2022-12-24T05:51:39;98651.97;;;12.37;72.35
21566;BME280;10943;48.738;9.320;2022-12-24T05:54:08;98650.22;;;12.31;72.54
21566;BME280;10943;48.738;9.320;2022-12-24T05:56:38;98659.06;;;11.71;72.65
21566;BME280;10943;48.738;9.320;2022-12-24T05:59:05;98654.16;;;11.79;73.57
21566;BME280;10943;48.738;9.320;2022-12-24T06:01:33;98665.06;;;12.19;72.13
21566;BME280;10943;48.738;9.320;2022-12-24T06:04:07;98665.41;;;12.23;71.43
21566;BME280;10943;48.738;9.320;2022-12-24T06:06:34;98654.84;;;12.03;71.17
21566;BME280;10943;48.738;9.320;2022-12-24T06:09:02;98652.00;;;11.81;71.81
21566;BME280;10943;48.738;9.320;2022-12-24T06:11:30;98642.22;;;11.78;73.02
21566;BME280;10943;48.738;9.320;2022-12-24T06:13:57;98662.25;;;11.80;72.84
21566;BME280;10943;48.738;9.320;2022-12-24T06:16:26;98670.00;;;11.78;72.85
21566;BME280;10943;48.738;9.320;2022-12-24T06:18:53;98675.88;;;11.82;72.41
21566;BME280;10943;48.738;9.320;2022-12-24T06:21:21;98669.66;;;11.75;72.71
21566;BME280;10943;48.738;9.320;2022-12-24T06:23:49;98666.97;;;11.97;72.38
21566;BME280;10943;48.738;9.320;2022-12-24T06:26:21;98666.88;;;11.75;72.36
21566;BME280;10943;48.738;9.320;2022-12-24T06:28:50;98683.81;;;11.73;72.81
21566;BME280;10943;48.738;9.320;2022-12-24T06:31:21;98676.03;;;11.92;72.75
21566;BME280;10943;48.738;9.320;2022-12-24T06:33:51;98676.03;;;11.92;72.64
21566;BME280;10943;48.738;9.320;2022-12-24T06:36:23;98685.16;;;12.04;71.47
21566;BME280;10943;48.738;9.320;2022-12-24T06:38:53;98682.97;;;12.07;70.55
21566;BME280;10943;48.738;9.320;2022-12-24T06:41:21;98689.00;;;11.86;72.47
21566;BME280;10943;48.738;9.320;2022-12-24T06:43:51;98699.38;;;11.91;72.22
21566;BME280;10943;48.738;9.320;2022-12-24T06:46:20;98697.78;;;11.95;71.91
21566;BME280;10943;48.738;9.320;2022-12-24T06:48:48;98707.53;;;11.81;72.42
21566;BME280;10943;48.738;9.320;2022-12-24T06:51:18;98714.69;;;11.94;72.19
21566;BME280;10943;48.738;9.320;2022-12-24T06:53:48;98719.66;;;12.09;71.41
21566;BME280;10943;48.738;9.320;2022-12-24T06:56:20;98725.06;;;11.98;71.64
21566;BME280;10943;48.738;9.320;2022-12-24T06:58:48;98727.47;;;11.95;71.96
21566;BME280;10943;48.738;9.320;2022-12-24T07:01:18;98736.13;;;11.64;72.40
21566;BME280;10943;48.738;9.320;2022-12-24T07:03:47;98738.66;;;11.66;72.74
21566;BME280;10943;48.738;9.320;2022-12-24T07:06:24;98723.25;;;11.92;72.79
21566;BME280;10943;48.738;9.320;2022-12-24T07:08:53;98736.94;;;12.11;72.47
21566;BME280;10943;48.738;9.320;2022-12-24T07:11:23;98738.19;;;12.20;72.38
21566;BME280;10943;48.738;9.320;2022-12-24T07:13:51;98733.56;;;12.70;70.97
21566;BME280;10943;48.738;9.320;2022-12-24T07:16:18;98750.31;;;12.53;71.55
21566;BME280;10943;48.738;9.320;2022-12-24T07:18:46;98752.16;;;12.64;71.02
21566;BME280;10943;48.738;9.320;2022-12-24T07:21:13;98756.13;;;12.51;71.02
21566;BME280;10943;48.738;9.320;2022-12-24T07:23:41;98758.44;;;12.54;71.60
21566;BME280;10943;48.738;9.320;2022-12-24T07:26:10;98760.88;;;12.51;71.42
21566;BME280;10943;48.738;9.320;2022-12-24T07:28:38;98756.28;;;12.62;71.54
21566;BME280;10943;48.738;9.320;2022-12-24T07:31:05;98764.28;;;12.58;71.55
21566;BME280;10943;48.738;9.320;2022-12-24T07:33:33;98765.72;;;12.61;71.61
21566;BME280;10943;48.738;9.320;2022-12-24T07:36:05;98769.16;;;12.46;71.42
21566;BME280;10943;48.738;9.320;2022-12-24T07:38:34;98785.06;;;12.33;71.36
21566;BME280;10943;48.738;9.320;2022-12-24T07:41:02;98779.59;;;12.38;71.66
21566;BME280;10943;48.738;9.320;2022-12-24T07:43:32;98781.97;;;12.47;70.17
21566;BME280;10943;48.738;9.320;2022-12-24T07:46:00;98770.38;;;11.99;72.68
21566;BME280;10943;48.738;9.320;2022-12-24T07:48:29;98769.03;;;12.01;72.84
21566;BME280;10943;48.738;9.320;2022-12-24T07:50:59;98775.31;;;12.14;72.70
21566;BME280;10943;48.738;9.320;2022-12-24T07:53:27;98779.59;;;12.21;72.06
21566;BME280;10943;48.738;9.320;2022-12-24T07:55:56;98780.97;;;12.19;72.11
21566;BME280;10943;48.738;9.320;2022-12-24T07:58:28;98771.31;;;12.44;71.96
21566;BME280;10943;48.738;9.320;2022-12-24T08:00:58;98774.84;;;12.56;72.24
21566;BME280;10943;48.738;9.320;2022-12-24T08:03:27;98776.03;;;12.60;72.00
21566;BME280;10943;48.738;9.320;2022-12-24T08:05:55;98790.75;;;12.61;71.74
21566;BME280;10943;48.738;9.320;2022-12-24T08:08:23;98796.81;;;12.97;71.40
21566;BME280;10943;48.738;9.320;2022-12-24T08:10:51;98788.78;;;13.00;70.47
21566;BME280;10943;48.738;9.320;2022-12-24T08:13:19;98790.53;;;13.07;70.16
21566;BME280;10943;48.738;9.320;2022-12-24T08:15:46;98789.59;;;13.23;69.38
21566;BME280;10943;48.738;9.320;2022-12-24T08:18:13;98798.38;;;13.10;70.32
21566;BME280;10943;48.738;9.320;2022-12-24T08:20:41;98793.13;;;12.91;70.58
21566;BME280;10943;48.738;9.320;2022-12-24T08:23:08;98791.03;;;12.81;71.24
21566;BME280;10943;48.738;9.320;2022-12-24T08:25:36;98789.34;;;12.80;69.82
21566;BME280;10943;48.738;9.320;2022-12-24T08:28:05;98800.72;;;12.57;71.39
21566;BME280;10943;48.738;9.320;2022-12-24T08:30:33;98801.53;;;12.96;71.49
21566;BME280;10943;48.738;9.320;2022-12-24T08:33:01;98805.69;;;13.16;71.77
21566;BME280;10943;48.738;9.320;2022-12-24T08:35:29;98809.91;;;13.18;71.88
21566;BME280;10943;48.738;9.320;2022-12-24T08:37:57;98822.84;;;13.30;72.13
21566;BME280;10943;48.738;9.320;2022-12-24T08:40:24;98823.69;;;13.52;71.82
21566;BME280;10943;48.738;9.320;2022-12-24T08:42:52;98831.88;;;13.64;71.84
21566;BME280;10943;48.738;9.320;2022-12-24T08:45:20;98836.63;;;13.91;70.48
21566;BME280;10943;48.738;9.320;2022-12-24T08:47:48;98831.22;;;13.79;70.20
21566;BME280;10943;48.738;9.320;2022-12-24T08:50:15;98833.69;;;13.76;70.34
21566;BME280;10943;48.738;9.320;2022-12-24T08:52:43;98835.72;;;13.58;70.25
21566;BME280;10943;48.738;9.320;2022-12-24T08:55:10;98840.06;;;14.03;69.33
21566;BME280;10943;48.738;9.320;2022-12-24T08:57:38;98846.97;;;13.96;69.46
21566;BME280;10943;48.738;9.320;2022-12-24T09:00:07;98852.06;;;14.04;69.25
21566;BME280;10943;48.738;9.320;2022-12-24T09:02:35;98855.19;;;14.08;69.96
21566;BME280;10943;48.738;9.320;2022-12-24T09:05:04;98855.09;;;13.97;69.81
21566;BME280;10943;48.738;9.320;2022-12-24T09:07:31;98853.63;;;13.90;68.44
21566;BME280;10943;48.738;9.320;2022-12-24T09:09:59;98853.41;;;14.29;67.47
21566;BME280;10943;48.738;9.320;2022-12-24T09:12:27;98869.03;;;14.62;67.82
21566;BME280;10943;48.738;9.320;2022-12-24T09:14:55;98872.34;;;14.59;68.51
21566;BME280;10943;48.738;9.320;2022-12-24T09:17:29;98867.41;;;14.66;67.56
21566;BME280;10943;48.738;9.320;2022-12-24T09:19:56;98872.34;;;14.97;67.24
21566;BME280;10943;48.738;9.320;2022-12-24T09:22:24;98881.28;;;15.47;67.09
21566;BME280;10943;48.738;9.320;2022-12-24T09:24:53;98877.28;;;16.01;65.51
21566;BME280;10943;48.738;9.320;2022-12-24T09:27:20;98886.50;;;16.02;67.12
21566;BME280;10943;48.738;9.320;2022-12-24T09:29:48;98892.72;;;16.24;67.45
21566;BME280;10943;48.738;9.320;2022-12-24T09:32:15;98883.16;;;17.13;68.07
21566;BME280;10943;48.738;9.320;2022-12-24T09:34:43;98889.19;;;17.51;66.34
21566;BME280;10943;48.738;9.320;2022-12-24T09:37:10;98889.41;;;17.70;61.13
21566;BME280;10943;48.738;9.320;2022-12-24T09:39:38;98889.63;;;18.29;62.02
21566;BME280;10943;48.738;9.320;2022-12-24T09:42:18;98893.16;;;18.50;59.75
21566;BME280;10943;48.738;9.320;2022-12-24T09:45:22;98890.09;;;19.59;56.83
21566;BME280;10943;48.738;9.320;2022-12-24T09:48:12;98888.06;;;20.08;56.91
21566;BME280;10943;48.738;9.320;2022-12-24T09:51:09;98895.56;;;21.50;50.96
21566;BME280;10943;48.738;9.320;2022-12-24T09:53:54;98894.19;;;21.47;46.68
21566;BME280;10943;48.738;9.320;2022-12-24T09:56:40;98885.44;;;20.69;45.56
21566;BME280;10943;48.738;9.320;2022-12-24T09:59:16;98890.78;;;19.94;45.20
21566;BME280;10943;48.738;9.320;2022-12-24T10:01:50;98894.06;;;20.58;46.77
21566;BME280;10943;48.738;9.320;2022-12-24T10:04:28;98891.19;;;22.22;43.20
21566;BME280;10943;48.738;9.320;2022-12-24T10:07:30;98899.50;;;24.38;39.14
21566;BME280;10943;48.738;9.320;2022-12-24T10:10:39;98892.56;;;25.45;35.70
21566;BME280;10943;48.738;9.320;2022-12-24T10:25:24;98882.31;;;23.51;34.37
21566;BME280;10943;48.738;9.320;2022-12-24T10:28:00;98898.53;;;22.37;38.00
21566;BME280;10943;48.738;9.320;2022-12-24T10:30:28;98891.28;;;22.45;37.65
21566;BME280;10943;48.738;9.320;2022-12-24T10:32:56;98891.69;;;22.38;37.54
21566;BME280;10943;48.738;9.320;2022-12-24T10:35:38;98892.53;;;21.74;38.35
21566;BME280;10943;48.738;9.320;2022-12-24T10:38:11;98897.44;;;21.54;37.86
21566;BME280;10943;48.738;9.320;2022-12-24T10:40:46;98901.75;;;21.05;38.25
21566;BME280;10943;48.738;9.320;2022-12-24T10:43:18;98905.56;;;20.43;41.96
21566;BME280;10943;48.738;9.320;2022-12-24T10:46:21;98902.59;;;19.96;41.38
21566;BME280;10943;48.738;9.320;2022-12-24T10:49:12;98895.16;;;19.86;42.47
21566;BME280;10943;48.738;9.320;2022-12-24T10:52:00;98906.22;;;19.97;42.33
21566;BME280;10943;48.738;9.320;2022-12-24T10:54:30;98898.25;;;19.60;42.73
21566;BME280;10943;48.738;9.320;2022-12-24T10:57:22;98905.19;;;19.68;42.55
21566;BME280;10943;48.738;9.320;2022-12-24T10:59:55;98918.25;;;19.83;41.56
21566;BME280;10943;48.738;9.320;2022-12-24T11:04:58;98905.59;;;19.56;42.85
21566;BME280;10943;48.738;9.320;2022-12-24T11:07:28;98900.16;;;19.65;43.02
21566;BME280;10943;48.738;9.320;2022-12-24T11:10:07;98897.16;;;19.56;42.57
21566;BME280;10943;48.738;9.320;2022-12-24T11:12:47;98888.75;;;19.03;43.33
21566;BME280;10943;48.738;9.320;2022-12-24T11:15:36;98892.69;;;19.31;43.72
21566;BME280;10943;48.738;9.320;2022-12-24T11:18:13;98897.75;;;19.29;43.61
21566;BME280;10943;48.738;9.320;2022-12-24T11:20:50;98887.13;;;19.50;43.11
21566;BME280;10943;48.738;9.320;2022-12-24T11:23:19;98894.41;;;19.27;43.03
21566;BME280;10943;48.738;9.320;2022-12-24T11:25:50;98886.28;;;19.25;42.86
21566;BME280;10943;48.738;9.320;2022-12-24T11:28:31;98895.56;;;18.96;43.72
21566;BME280;10943;48.738;9.320;2022-12-24T11:31:18;98897.41;;;18.77;43.83
21566;BME280;10943;48.738;9.320;2022-12-24T11:33:49;98893.03;;;18.66;44.71
21566;BME280;10943;48.738;9.320;2022-12-24T11:36:23;98892.22;;;18.60;44.80
21566;BME280;10943;48.738;9.320;2022-12-24T11:38:55;98889.53;;;18.44;45.64
21566;BME280;10943;48.738;9.320;2022-12-24T11:41:25;98889.38;;;18.65;45.22
21566;BME280;10943;48.738;9.320;2022-12-24T11:44:01;98887.84;;;18.43;44.84
21566;BME280;10943;48.738;9.320;2022-12-24T11:46:38;98879.16;;;18.74;44.17
21566;BME280;10943;48.738;9.320;2022-12-24T11:51:57;98876.47;;;19.47;42.59
21566;BME280;10943;48.738;9.320;2022-12-24T11:57:18;98885.69;;;19.28;43.16
21566;BME280;10943;48.738;9.320;2022-12-24T11:59:48;98897.66;;;19.63;42.44
21566;BME280;10943;48.738;9.320;2022-12-24T12:02:26;98889.16;;;19.93;41.87
21566;BME280;10943;48.738;9.320;2022-12-24T12:05:17;98880.66;;;20.69;39.46
21566;BME280;10943;48.738;9.320;2022-12-24T12:07:52;98879.72;;;20.93;39.74
21566;BME280;10943;48.738;9.320;2022-12-24T12:10:30;98885.28;;;21.12;39.39
21566;BME280;10943;48.738;9.320;2022-12-24T12:13:05;98880.03;;;21.05;39.23
21566;BME280;10943;48.738;9.320;2022-12-24T12:18:38;98876.94;;;21.35;40.01
21566;BME280;10943;48.738;9.320;2022-12-24T12:21:18;98868.97;;;21.09;39.41
21566;BME280;10943;48.738;9.320;2022-12-24T12:23:56;98857.53;;;21.75;37.89
21566;BME280;10943;48.738;9.320;2022-12-24T12:26:32;98860.25;;;21.80;37.17
21566;BME280;10943;48.738;9.320;2022-12-24T12:31:47;98864.88;;;22.49;36.95
21566;BME280;10943;48.738;9.320;2022-12-24T12:34:35;98870.88;;;23.73;34.71
21566;BME280;10943;48.738;9.320;2022-12-24T12:37:29;98871.28;;;25.12;33.45
21566;BME280;10943;48.738;9.320;2022-12-24T12:40:05;98875.28;;;25.11;31.87
21566;BME280;10943;48.738;9.320;2022-12-24T12:42:43;98875.94;;;25.17;31.65
21566;BME280;10943;48.738;9.320;2022-12-24T12:45:32;98881.66;;;25.85;30.14
21566;BME280;10943;48.738;9.320;2022-12-24T12:51:42;98884.66;;;26.19;29.89
21566;BME280;10943;48.738;9.320;2022-12-24T12:55:22;98891.22;;;25.33;30.80
21566;BME280;10943;48.738;9.320;2022-12-24T12:58:17;98883.44;;;23.99;32.21
21566;BME280;10943;48.738;9.320;2022-12-24T13:00:52;98888.13;;;22.91;34.75
21566;BME280;10943;48.738;9.320;2022-12-24T13:04:08;98883.03;;;21.84;36.19
21566;BME280;10943;48.738;9.320;2022-12-24T13:20:49;98879.56;;;19.21;41.35
21566;BME280;10943;48.738;9.320;2022-12-24T13:23:26;98879.41;;;19.12;41.72
21566;BME280;10943;48.738;9.320;2022-12-24T13:25:56;98882.13;;;18.93;41.90
21566;BME280;10943;48.738;9.320;2022-12-24T13:34:03;98876.69;;;18.68;44.12
21566;BME280;10943;48.738;9.320;2022-12-24T13:45:41;98885.44;;;18.26;44.31
21566;BME280;10943;48.738;9.320;2022-12-24T13:51:19;98877.72;;;18.08;44.36
21566;BME280;10943;48.738;9.320;2022-12-24T13:53:57;98882.28;;;17.98;45.51
21566;BME280;10943;48.738;9.320;2022-12-24T13:56:30;98890.75;;;17.83;45.24
21566;BME280;10943;48.738;9.320;2022-12-24T13:59:35;98893.63;;;17.68;45.49
21566;BME280;10943;48.738;9.320;2022-12-24T14:02:19;98889.38;;;17.75;45.03
21566;BME280;10943;48.738;9.320;2022-12-24T14:04:50;98881.75;;;17.81;45.13
21566;BME280;10943;48.738;9.320;2022-12-24T14:07:21;98885.53;;;18.11;44.60
21566;BME280;10943;48.738;9.320;2022-12-24T14:09:50;98877.75;;;18.03;44.59
21566;BME280;10943;48.738;9.320;2022-12-24T14:12:51;98877.69;;;18.13;44.62
21566;BME280;10943;48.738;9.320;2022-12-24T14:16:00;98865.44;;;18.38;44.46
21566;BME280;10943;48.738;9.320;2022-12-24T14:18:31;98868.88;;;18.30;44.34
21566;BME280;10943;48.738;9.320;2022-12-24T14:21:03;98874.31;;;18.11;44.92
21566;BME280;10943;48.738;9.320;2022-12-24T14:26:35;98852.56;;;17.87;45.67
21566;BME280;10943;48.738;9.320;2022-12-24T14:29:25;98853.13;;;17.94;45.71
21566;BME280;10943;48.738;9.320;2022-12-24T14:31:59;98845.72;;;17.54;46.26
21566;BME280;10943;48.738;9.320;2022-12-24T14:34:31;98850.63;;;17.27;46.56
21566;BME280;10943;48.738;9.320;2022-12-24T14:37:02;98855.97;;;17.13;48.54
21566;BME280;10943;48.738;9.320;2022-12-24T14:39:36;98861.34;;;16.99;49.55
21566;BME280;10943;48.738;9.320;2022-12-24T14:45:43;98866.69;;;16.70;51.59
21566;BME280;10943;48.738;9.320;2022-12-24T14:48:51;98856.88;;;16.73;51.12
21566;BME280;10943;48.738;9.320;2022-12-24T14:55:41;98858.84;;;16.62;49.59
21566;BME280;10943;48.738;9.320;2022-12-24T14:58:32;98870.03;;;16.67;49.02
21566;BME280;10943;48.738;9.320;2022-12-24T15:01:28;98877.31;;;16.53;49.54
21566;BME280;10943;48.738;9.320;2022-12-24T15:06:54;98874.25;;;16.23;49.78
21566;BME280;10943;48.738;9.320;2022-12-24T15:09:26;98885.94;;;16.05;49.69
21566;BME280;10943;48.738;9.320;2022-12-24T15:11:59;98892.66;;;16.04;49.74
21566;BME280;10943;48.738;9.320;2022-12-24T15:14:40;98897.09;;;15.84;50.44
21566;BME280;10943;48.738;9.320;2022-12-24T15:17:10;98883.66;;;15.86;50.45
21566;BME280;10943;48.738;9.320;2022-12-24T15:19:42;98880.84;;;15.81;50.40